Time;durP1;ratioP1;P1;durP2;ratioP2;P2;SDS_P1;SDS_P2;PMS_P1;PMS_P2;Temp;Humidity;BMP_temperature;BMP_pressure;BME280_temperature;BME280_humidity;BME280_pressure;Samples;Min_cycle;Max_cycle;Signal;HPM_P1;HPM_P2
2023/10/17 00:01:34;;;;;;;1.85;1.67;;;11.80;73.90;;;;;;5029879;28;20048;-77
2023/10/17 00:06:58;;;;;;;2.15;1.88;;;11.70;73.80;;;;;;5030737;28;20033;-77
2023/10/17 00:09:25;;;;;;;2.00;1.80;;;11.70;73.80;;;;;;5030568;28;20118;-77
2023/10/17 00:14:45;;;;;;;2.92;1.85;;;11.70;73.90;;;;;;5028402;28;20033;-77
2023/10/17 00:17:13;;;;;;;2.45;1.73;;;11.70;73.90;;;;;;5032621;28;20048;-77
2023/10/17 00:19:41;;;;;;;3.20;2.00;;;11.60;73.80;;;;;;5027918;28;20021;-77
2023/10/17 00:22:09;;;;;;;2.53;1.98;;;11.60;73.80;;;;;;5031818;28;20022;-77
2023/10/17 00:24:35;;;;;;;2.63;1.98;;;11.70;73.90;;;;;;5015698;28;20739;-77
2023/10/17 00:27:02;;;;;;;3.80;2.22;;;11.60;73.90;;;;;;5028870;28;20163;-77
2023/10/17 00:29:30;;;;;;;2.30;1.95;;;11.60;73.90;;;;;;5034977;28;20536;-78
2023/10/17 00:31:56;;;;;;;2.25;1.73;;;11.60;73.90;;;;;;5000808;28;20068;-77
2023/10/17 00:34:23;;;;;;;3.42;2.17;;;11.60;73.90;;;;;;5028525;28;20379;-77
2023/10/17 00:36:49;;;;;;;2.40;1.95;;;11.60;73.90;;;;;;5019248;28;20035;-77
2023/10/17 00:39:26;;;;;;;2.97;1.83;;;11.60;73.90;;;;;;5032433;28;20112;-76
2023/10/17 00:44:40;;;;;;;5.13;1.95;;;11.60;73.90;;;;;;5017361;28;20102;-77
2023/10/17 00:47:18;;;;;;;2.05;1.80;;;11.60;73.90;;;;;;5031030;28;20104;-77
2023/10/17 00:49:45;;;;;;;3.20;2.10;;;11.60;73.90;;;;;;5002206;28;20029;-77
2023/10/17 00:52:25;;;;;;;2.65;1.50;;;11.60;74.00;;;;;;4999292;28;20498;-76
2023/10/17 00:54:55;;;;;;;2.60;1.65;;;11.50;73.90;;;;;;5030765;28;20120;-77
2023/10/17 00:57:26;;;;;;;1.80;1.58;;;11.50;73.90;;;;;;5010998;28;20367;-77
2023/10/17 00:59:56;;;;;;;2.20;1.70;;;11.50;73.90;;;;;;5026005;28;20513;-77
2023/10/17 01:02:24;;;;;;;2.70;1.90;;;11.60;74.00;;;;;;5017351;28;20026;-76
2023/10/17 01:04:51;;;;;;;1.70;1.60;;;11.60;74.00;;;;;;5033579;28;20045;-77
2023/10/17 01:07:27;;;;;;;2.85;1.80;;;11.50;73.90;;;;;;5016266;28;20128;-79
2023/10/17 01:10:06;;;;;;;2.72;1.75;;;11.50;73.90;;;;;;5033601;28;20026;-77
2023/10/17 01:12:33;;;;;;;2.10;1.75;;;11.50;74.00;;;;;;5034345;28;20034;-76
2023/10/17 01:14:59;;;;;;;2.35;1.60;;;11.50;73.90;;;;;;5019143;28;20030;-76
2023/10/17 01:17:25;;;;;;;1.92;1.70;;;11.50;74.00;;;;;;5004726;28;20079;-77
2023/10/17 01:19:53;;;;;;;1.75;1.60;;;11.50;74.00;;;;;;5022133;28;20060;-77
2023/10/17 01:22:23;;;;;;;2.42;1.73;;;11.50;74.00;;;;;;5044976;28;20064;-76
2023/10/17 01:24:49;;;;;;;2.22;1.75;;;11.50;74.00;;;;;;5032786;28;20033;-78
2023/10/17 01:27:15;;;;;;;2.50;1.90;;;11.50;74.00;;;;;;5031504;28;20178;-78
2023/10/17 01:29:44;;;;;;;1.85;1.60;;;11.50;74.00;;;;;;5016478;28;20462;-78
2023/10/17 01:32:11;;;;;;;1.85;1.60;;;11.50;74.00;;;;;;5020613;28;20473;-77
2023/10/17 01:34:39;;;;;;;2.83;1.55;;;11.50;74.00;;;;;;5033683;28;20054;-77
2023/10/17 01:37:07;;;;;;;2.15;1.67;;;11.50;74.00;;;;;;5034620;28;20082;-76
2023/10/17 01:39:37;;;;;;;2.40;1.92;;;11.50;74.00;;;;;;5023905;28;20029;-76
2023/10/17 01:42:05;;;;;;;2.72;1.98;;;11.50;74.00;;;;;;5034368;28;20041;-77
2023/10/17 01:44:31;;;;;;;1.90;1.45;;;11.50;74.00;;;;;;5015343;28;20363;-76
2023/10/17 01:46:58;;;;;;;2.75;1.92;;;11.50;74.00;;;;;;5017191;28;20025;-76
2023/10/17 01:49:27;;;;;;;3.35;1.95;;;11.50;74.10;;;;;;5015124;28;20033;-76
2023/10/17 01:51:53;;;;;;;2.28;1.42;;;11.50;74.00;;;;;;5016675;28;20044;-77
2023/10/17 01:54:21;;;;;;;1.77;1.48;;;11.40;74.00;;;;;;4998842;28;20037;-77
2023/10/17 01:56:49;;;;;;;2.65;2.00;;;11.40;74.00;;;;;;5022175;28;20408;-78
2023/10/17 01:59:25;;;;;;;2.65;1.75;;;11.40;74.00;;;;;;5021574;28;20029;-76
2023/10/17 02:01:56;;;;;;;2.30;1.85;;;11.40;74.00;;;;;;5018373;28;20135;-77
2023/10/17 02:04:24;;;;;;;2.17;1.70;;;11.40;74.10;;;;;;5023717;28;20041;-77
2023/10/17 02:06:50;;;;;;;2.63;1.85;;;11.40;74.10;;;;;;5011812;28;20486;-77
2023/10/17 02:09:44;;;;;;;1.70;1.60;;;11.40;74.10;;;;;;5038011;28;20029;-77
2023/10/17 02:12:12;;;;;;;2.60;1.75;;;11.40;74.10;;;;;;5017376;28;20037;-77
2023/10/17 02:14:39;;;;;;;1.70;1.60;;;11.40;74.00;;;;;;5016432;28;20063;-80
2023/10/17 02:17:06;;;;;;;2.13;1.70;;;11.40;74.10;;;;;;5033946;28;20057;-77
2023/10/17 02:19:32;;;;;;;2.03;1.83;;;11.40;74.10;;;;;;5034192;28;20029;-79
2023/10/17 02:21:58;;;;;;;2.35;1.70;;;11.40;74.10;;;;;;5011048;28;20041;-77
2023/10/17 02:24:25;;;;;;;2.10;1.75;;;11.40;74.10;;;;;;5014807;28;20029;-78
2023/10/17 02:26:58;;;;;;;2.47;1.90;;;11.40;74.10;;;;;;5030864;28;20065;-78
2023/10/17 02:29:26;;;;;;;2.90;2.03;;;11.40;74.10;;;;;;5030777;28;20048;-77
2023/10/17 02:31:54;;;;;;;2.53;1.70;;;11.40;74.10;;;;;;5009607;28;20055;-77
2023/10/17 02:34:29;;;;;;;2.20;1.77;;;11.40;74.10;;;;;;5034159;28;20028;-77
2023/10/17 02:36:55;;;;;;;;;;;11.40;74.10;;;;;;5031403;28;20371;-77
2023/10/17 02:39:22;;;;;;;1.83;1.60;;;11.40;74.00;;;;;;5028916;28;19921;-76
2023/10/17 02:41:57;;;;;;;2.10;1.70;;;11.40;73.90;;;;;;5020497;28;20034;-77
2023/10/17 02:44:24;;;;;;;2.50;1.65;;;11.40;74.00;;;;;;5027932;28;20116;-77
2023/10/17 02:46:51;;;;;;;2.72;1.70;;;11.40;74.10;;;;;;5015073;28;20029;-76
2023/10/17 02:49:17;;;;;;;2.53;1.70;;;11.40;74.10;;;;;;5014037;28;20112;-77
2023/10/17 02:51:43;;;;;;;2.10;1.70;;;11.40;74.10;;;;;;5023200;28;20040;-77
2023/10/17 02:54:14;;;;;;;2.72;1.88;;;11.40;74.10;;;;;;5014464;28;20036;-76
2023/10/17 02:56:46;;;;;;;2.95;2.10;;;11.40;74.20;;;;;;5029865;28;20098;-77
2023/10/17 02:59:13;;;;;;;2.70;1.85;;;11.40;74.20;;;;;;5025431;28;20033;-77
2023/10/17 03:01:42;;;;;;;2.30;1.70;;;11.40;74.20;;;;;;5034439;28;20061;-79
2023/10/17 03:04:13;;;;;;;2.38;1.88;;;11.40;74.20;;;;;;5028507;28;20076;-77
2023/10/17 03:06:40;;;;;;;1.80;1.65;;;11.40;74.20;;;;;;4995584;28;1095103;-77
2023/10/17 03:09:16;;;;;;;2.95;2.20;;;11.40;74.20;;;;;;5018442;28;20025;-78
2023/10/17 03:12:06;;;;;;;2.47;1.92;;;11.40;74.20;;;;;;5033080;28;20033;-77
2023/10/17 03:17:11;;;;;;;2.42;1.80;;;11.40;74.10;;;;;;5035582;28;20040;-77
2023/10/17 03:19:38;;;;;;;2.30;1.95;;;11.40;74.20;;;;;;5030460;28;20023;-77
2023/10/17 03:22:19;;;;;;;2.17;1.83;;;11.40;74.20;;;;;;5035093;28;20052;-76
2023/10/17 03:24:46;;;;;;;2.58;2.15;;;11.40;74.20;;;;;;5028326;28;20394;-78
2023/10/17 03:27:27;;;;;;;2.50;2.00;;;11.30;74.20;;;;;;5034246;28;20036;-77
2023/10/17 03:29:53;;;;;;;3.08;2.00;;;11.40;74.20;;;;;;5032033;28;20037;-77
2023/10/17 03:32:22;;;;;;;2.50;1.90;;;11.40;74.20;;;;;;5030017;28;20041;-77
2023/10/17 03:34:56;;;;;;;2.88;2.10;;;11.40;74.20;;;;;;5031076;28;20037;-77
2023/10/17 03:39:52;;;;;;;2.58;1.90;;;11.40;74.20;;;;;;5028282;28;20051;-76
2023/10/17 03:42:41;;;;;;;2.35;1.70;;;11.40;74.20;;;;;;5047953;28;20031;-77
2023/10/17 03:47:53;;;;;;;3.25;1.98;;;11.30;74.20;;;;;;5039149;28;20025;-76
2023/10/17 03:50:48;;;;;;;2.25;2.00;;;11.40;74.20;;;;;;5033881;28;20033;-76
2023/10/17 03:53:15;;;;;;;2.00;1.80;;;11.40;74.20;;;;;;5030296;28;20029;-76
2023/10/17 03:55:48;;;;;;;3.13;2.03;;;11.40;74.20;;;;;;5033755;28;20367;-77
2023/10/17 03:58:24;;;;;;;2.53;1.73;;;11.30;74.20;;;;;;5015315;28;20025;-76
2023/10/17 04:00:55;;;;;;;1.90;1.70;;;11.30;74.20;;;;;;5038834;28;20041;-76
2023/10/17 04:03:31;;;;;;;1.98;1.73;;;11.30;74.20;;;;;;5029110;28;20053;-76
2023/10/17 04:08:37;;;;;;;2.20;2.00;;;11.30;74.20;;;;;;5030183;28;20033;-77
2023/10/17 04:11:17;;;;;;;1.88;1.70;;;11.30;74.20;;;;;;5032709;28;20478;-77
2023/10/17 04:13:49;;;;;;;2.05;1.67;;;11.30;74.20;;;;;;5030132;28;20060;-78
2023/10/17 04:16:34;;;;;;;2.22;1.90;;;11.40;74.90;;;;;;5038609;28;20048;-77
2023/10/17 04:19:17;;;;;;;;;;;11.30;74.20;;;;;;5028275;28;20382;-78
2023/10/17 04:24:34;;;;;;;2.28;1.80;;;11.40;74.00;;;;;;5024383;28;20036;-77
2023/10/17 04:29:44;;;;;;;3.53;2.10;;;11.30;74.10;;;;;;5032732;28;20033;-77
2023/10/17 04:32:13;;;;;;;2.53;1.80;;;11.40;74.20;;;;;;5026410;28;20052;-79
2023/10/17 04:34:48;;;;;;;2.83;2.00;;;11.30;74.20;;;;;;5009876;28;20072;-76
2023/10/17 04:37:24;;;;;;;2.22;2.00;;;11.30;74.20;;;;;;5037671;28;20040;-77
2023/10/17 04:39:56;;;;;;;1.85;1.70;;;11.30;74.20;;;;;;5045547;28;20035;-76
2023/10/17 04:45:13;;;;;;;3.13;2.22;;;11.30;74.20;;;;;;5034234;28;20084;-78
2023/10/17 04:47:40;;;;;;;1.90;1.75;;;11.30;74.10;;;;;;5012927;28;20385;-78
2023/10/17 04:50:11;;;;;;;2.20;1.83;;;11.30;74.20;;;;;;5017201;28;20031;-79
2023/10/17 04:52:41;;;;;;;2.38;1.70;;;11.30;74.20;;;;;;5035055;28;20119;-77
2023/10/17 04:55:30;;;;;;;2.08;1.77;;;11.30;74.20;;;;;;5013577;28;20052;-77
2023/10/17 04:57:58;;;;;;;2.22;1.95;;;11.30;74.20;;;;;;5028793;28;20385;-76
2023/10/17 05:03:14;;;;;;;2.10;1.90;;;11.30;74.20;;;;;;5031357;28;20036;-77
2023/10/17 05:08:37;;;;;;;2.42;2.22;;;11.30;74.20;;;;;;5033179;28;20039;-76
2023/10/17 06:17:06;;;;;;;5.55;4.22;;;11.20;74.20;;;;;;5047722;28;20018;-76
2023/10/17 06:19:32;;;;;;;5.05;3.95;;;11.20;74.20;;;;;;5039354;28;20079;-75
2023/10/17 06:34:47;;;;;;;6.00;4.60;;;11.20;74.20;;;;;;5044536;28;20033;-75
2023/10/17 06:37:19;;;;;;;6.45;3.97;;;11.20;74.30;;;;;;5020746;28;20033;-76
2023/10/17 06:39:49;;;;;;;5.60;4.10;;;11.20;74.30;;;;;;5040185;28;20367;-75
2023/10/17 06:42:16;;;;;;;5.22;4.10;;;11.20;74.30;;;;;;5042531;28;20045;-76
2023/10/17 06:44:53;;;;;;;5.63;4.07;;;11.20;74.30;;;;;;5038420;28;20029;-75
2023/10/17 06:47:30;;;;;;;5.90;4.55;;;11.20;74.30;;;;;;5033572;28;20029;-75
2023/10/17 06:52:39;;;;;;;5.60;4.05;;;11.20;74.30;;;;;;5041640;28;20087;-75
2023/10/17 06:55:07;;;;;;;6.18;4.60;;;11.10;74.20;;;;;;5028329;28;20032;-75
2023/10/17 06:57:35;;;;;;;5.95;4.18;;;11.20;74.30;;;;;;5020958;28;20029;-76
2023/10/17 07:02:49;;;;;;;;;;;11.20;74.30;;;;;;5040908;28;20041;-75
2023/10/17 07:05:21;;;;;;;5.15;3.92;;;11.10;74.20;;;;;;5028806;28;20362;-75
2023/10/17 07:07:53;;;;;;;4.60;3.53;;;11.10;74.10;;;;;;5033638;28;20033;-75
2023/10/17 07:13:34;;;;;;;5.47;3.97;;;11.10;74.20;;;;;;5036553;28;20487;-75
2023/10/17 07:16:16;;;;;;;5.00;3.80;;;11.10;74.30;;;;;;5047208;28;20075;-76
2023/10/17 07:18:47;;;;;;;6.38;3.90;;;11.10;74.20;;;;;;5042103;28;20037;-80
2023/10/17 07:23:42;;;;;;;5.60;4.28;;;11.10;74.30;;;;;;5035852;28;20096;-77
2023/10/17 07:26:24;;;;;;;5.32;4.10;;;11.10;74.40;;;;;;5034348;28;20045;-75
2023/10/17 07:28:52;;;;;;;5.30;3.80;;;11.10;74.30;;;;;;5041365;28;20486;-75
2023/10/17 07:31:22;;;;;;;5.70;3.88;;;11.10;74.30;;;;;;5043283;28;20034;-75
2023/10/17 07:34:07;;;;;;;4.30;3.30;;;11.10;74.30;;;;;;5031141;28;20033;-75
2023/10/17 07:36:34;;;;;;;6.47;4.07;;;11.10;74.30;;;;;;5017410;28;20052;-75
2023/10/17 07:39:15;;;;;;;5.07;3.65;;;11.10;74.30;;;;;;5032915;28;20029;-75
2023/10/17 07:41:44;;;;;;;5.65;4.20;;;11.10;74.30;;;;;;5035793;28;20033;-76
2023/10/17 07:44:19;;;;;;;4.90;3.63;;;11.10;74.30;;;;;;5024275;28;20116;-77
2023/10/17 07:49:29;;;;;;;5.47;3.80;;;11.10;74.40;;;;;;5038922;28;20034;-75
2023/10/17 07:51:58;;;;;;;5.38;3.95;;;11.10;74.30;;;;;;5017647;28;20486;-75
2023/10/17 07:54:28;;;;;;;4.97;3.60;;;11.10;75.00;;;;;;5034353;28;20032;-75
2023/10/17 07:56:58;;;;;;;5.60;4.05;;;11.10;74.30;;;;;;5037394;28;20124;-76
2023/10/17 07:59:34;;;;;;;5.97;3.83;;;11.10;74.40;;;;;;5035410;28;20034;-75
2023/10/17 08:02:08;;;;;;;5.93;3.90;;;11.10;74.40;;;;;;5023605;28;20128;-75
2023/10/17 08:04:39;;;;;;;4.43;3.25;;;11.10;74.30;;;;;;5039104;28;20103;-75
2023/10/17 08:07:04;;;;;;;5.82;3.72;;;11.10;74.40;;;;;;5017748;28;20204;-75
2023/10/17 08:09:36;;;;;;;5.78;3.63;;;11.10;74.30;;;;;;5026747;28;20029;-76
2023/10/17 08:12:08;;;;;;;4.82;3.38;;;11.10;74.40;;;;;;5031496;28;20114;-75
2023/10/17 08:14:44;;;;;;;5.60;3.78;;;11.10;74.30;;;;;;5033039;28;20021;-77
2023/10/17 08:17:11;;;;;;;5.25;3.72;;;11.10;74.40;;;;;;5034249;28;20029;-76
2023/10/17 08:22:54;;;;;;;4.47;3.50;;;11.10;74.40;;;;;;5030362;28;20061;-75
2023/10/17 08:25:21;;;;;;;5.70;3.80;;;11.10;74.30;;;;;;5014658;28;20068;-75
2023/10/17 08:27:47;;;;;;;5.32;3.85;;;11.20;74.40;;;;;;5035489;28;20037;-76
2023/10/17 08:30:23;;;;;;;6.15;4.38;;;11.10;74.30;;;;;;5014442;28;20041;-75
2023/10/17 08:33:11;;;;;;;5.63;3.70;;;11.20;74.40;;;;;;5039398;28;20026;-75
2023/10/17 08:35:38;;;;;;;6.03;4.20;;;11.20;74.40;;;;;;5019761;28;20029;-76
2023/10/17 08:38:10;;;;;;;6.32;3.97;;;11.20;74.40;;;;;;5040334;28;20084;-76
2023/10/17 08:43:14;;;;;;;5.55;3.97;;;11.20;74.40;;;;;;5030961;28;20037;-75
2023/10/17 08:45:41;;;;;;;5.13;3.95;;;11.20;74.50;;;;;;5032640;28;20415;-74
2023/10/17 08:48:11;;;;;;;4.85;3.90;;;11.30;74.40;;;;;;5031955;28;20039;-77
2023/10/17 08:50:38;;;;;;;7.50;4.38;;;11.30;74.50;;;;;;5040923;28;20124;-75
2023/10/17 08:53:21;;;;;;;5.72;4.18;;;11.30;74.50;;;;;;5030548;28;20025;-75
2023/10/17 08:55:48;;;;;;;6.22;4.38;;;11.30;74.50;;;;;;5033219;28;20029;-76
2023/10/17 08:58:15;;;;;;;5.63;4.18;;;11.30;74.50;;;;;;5038096;28;20084;-75
2023/10/17 09:03:23;;;;;;;5.30;4.18;;;11.40;74.50;;;;;;5034775;28;20041;-75
2023/10/17 09:08:42;;;;;;;5.35;4.18;;;11.50;74.60;;;;;;5040147;28;20056;-77
2023/10/17 09:11:08;;;;;;;6.13;4.25;;;11.50;74.50;;;;;;5030283;28;20486;-77
2023/10/17 09:14:11;;;;;;;6.15;4.22;;;11.60;74.50;;;;;;5043340;28;20032;-75
2023/10/17 09:16:34;;;;;;;5.00;3.97;;;11.60;74.50;;;;;;5029743;28;20131;-75
2023/10/17 09:19:10;;;;;;;5.95;4.40;;;11.70;74.40;;;;;;5013228;28;20120;-75
2023/10/17 09:21:43;;;;;;;6.50;4.55;;;11.70;74.40;;;;;;5046323;28;20167;-76
2023/10/17 09:24:32;;;;;;;5.80;4.53;;;11.80;74.40;;;;;;5049183;28;20026;-75
2023/10/17 09:26:58;;;;;;;5.95;4.55;;;11.80;74.40;;;;;;5047435;28;20363;-75
2023/10/17 09:29:27;;;;;;;6.50;4.32;;;11.90;74.30;;;;;;5048522;28;20028;-74
2023/10/17 09:31:54;;;;;;;5.05;4.00;;;11.90;74.20;;;;;;5049761;28;20029;-76
2023/10/17 09:34:25;;;;;;;5.80;4.28;;;12.00;74.20;;;;;;5036671;28;20131;-75
2023/10/17 09:37:03;;;;;;;6.35;4.35;;;12.00;74.10;;;;;;5020760;28;20209;-78
2023/10/17 09:39:33;;;;;;;6.15;4.45;;;12.10;74.10;;;;;;5037078;28;20404;-75
2023/10/17 09:41:59;;;;;;;5.88;4.35;;;12.10;74.00;;;;;;5049767;28;20048;-75
2023/10/17 09:44:25;;;;;;;5.90;4.70;;;12.20;74.00;;;;;;5015327;28;20399;-77
2023/10/17 09:47:02;;;;;;;6.53;4.43;;;12.20;74.00;;;;;;5025393;28;20244;-76
2023/10/17 09:49:43;;;;;;;5.47;4.35;;;12.30;74.00;;;;;;5038343;28;20454;-76
2023/10/17 09:52:10;;;;;;;6.05;4.18;;;12.30;74.00;;;;;;5039068;28;20486;-75
2023/10/17 09:54:40;;;;;;;5.80;4.55;;;12.40;73.90;;;;;;5037513;28;20021;-74
2023/10/17 09:57:14;;;;;;;6.50;4.70;;;12.40;73.80;;;;;;5050378;28;20032;-75
2023/10/17 10:00:14;;;;;;;5.38;4.10;;;12.40;73.80;;;;;;5042547;28;20064;-75
2023/10/17 10:02:43;;;;;;;5.80;4.38;;;12.50;73.90;;;;;;5038975;28;20029;-75
2023/10/17 10:05:20;;;;;;;6.00;3.75;;;12.50;73.70;;;;;;5035279;28;20112;-76
2023/10/17 10:07:46;;;;;;;5.88;4.30;;;12.60;73.80;;;;;;5032684;28;20119;-75
2023/10/17 10:10:48;;;;;;;5.57;4.28;;;12.60;73.80;;;;;;5037171;28;20033;-77
2023/10/17 10:13:14;;;;;;;5.75;4.35;;;12.60;73.90;;;;;;5033876;28;20029;-75
2023/10/17 10:15:59;;;;;;;7.55;4.38;;;12.70;73.70;;;;;;5039154;28;20025;-78
2023/10/17 10:18:38;;;;;;;6.03;4.43;;;12.70;73.80;;;;;;5041353;28;20021;-77
2023/10/17 10:21:05;;;;;;;5.28;4.05;;;12.80;73.80;;;;;;5017102;28;20038;-75
2023/10/17 10:23:39;;;;;;;6.07;4.22;;;12.80;73.80;;;;;;5044255;28;20021;-76
2023/10/17 10:26:10;;;;;;;5.32;3.83;;;12.80;73.80;;;;;;5053898;28;20503;-76
2023/10/17 10:28:43;;;;;;;5.40;4.18;;;12.90;73.80;;;;;;5032506;28;20466;-75
2023/10/17 10:31:29;;;;;;;4.85;3.80;;;12.90;73.80;;;;;;5039212;28;20033;-76
2023/10/17 10:33:55;;;;;;;;;;;12.90;73.90;;;;;;5033699;28;20112;-75
2023/10/17 10:36:26;;;;;;;4.70;3.22;;;12.90;73.70;;;;;;5046909;28;19949;-75
2023/10/17 10:38:54;;;;;;;4.57;3.58;;;13.00;73.60;;;;;;5038809;28;20033;-76
2023/10/17 10:41:23;;;;;;;5.13;3.63;;;13.00;73.70;;;;;;5047056;28;20044;-75
2023/10/17 10:43:57;;;;;;;4.50;3.55;;;13.00;73.80;;;;;;5018141;28;20039;-75
2023/10/17 10:46:24;;;;;;;5.53;4.00;;;13.10;73.90;;;;;;5041716;28;20018;-75
2023/10/17 10:48:53;;;;;;;5.32;3.72;;;13.10;73.80;;;;;;5042216;28;20049;-75
2023/10/17 10:51:21;;;;;;;5.65;3.80;;;13.10;73.80;;;;;;5034541;28;20033;-76
2023/10/17 10:53:54;;;;;;;4.75;3.70;;;13.10;73.80;;;;;;5016625;28;20040;-75
2023/10/17 10:56:22;;;;;;;5.20;3.70;;;13.20;73.90;;;;;;5041768;28;20136;-76
2023/10/17 10:58:55;;;;;;;4.93;3.60;;;13.20;73.80;;;;;;5025756;28;20119;-76
2023/10/17 11:01:21;;;;;;;5.07;3.38;;;13.20;73.80;;;;;;5040117;28;20037;-75
2023/10/17 11:03:48;;;;;;;5.30;3.72;;;13.20;73.80;;;;;;5023844;28;20036;-76
2023/10/17 11:06:18;;;;;;;5.18;3.65;;;13.30;73.90;;;;;;5022934;28;20477;-76
2023/10/17 11:08:46;;;;;;;4.45;3.42;;;13.20;73.80;;;;;;5040311;28;20029;-75
2023/10/17 11:11:16;;;;;;;4.75;3.70;;;13.30;73.90;;;;;;5039517;28;20493;-75
2023/10/17 11:13:50;;;;;;;4.47;3.20;;;13.30;73.90;;;;;;5030761;28;20079;-76
2023/10/17 11:16:26;;;;;;;4.68;3.30;;;13.30;73.90;;;;;;5043325;28;20025;-76
2023/10/17 11:18:52;;;;;;;5.22;3.70;;;13.30;73.90;;;;;;5043267;28;20036;-76
2023/10/17 11:21:20;;;;;;;5.05;3.60;;;13.30;73.80;;;;;;5043799;28;20025;-77
2023/10/17 11:23:56;;;;;;;4.45;3.35;;;13.40;73.90;;;;;;5042840;28;20025;-75
2023/10/17 11:26:28;;;;;;;4.20;3.25;;;13.40;73.90;;;;;;5030950;28;20030;-75
2023/10/17 11:28:54;;;;;;;4.38;3.50;;;13.40;73.90;;;;;;5039916;28;20025;-76
2023/10/17 11:31:22;;;;;;;4.57;3.50;;;13.40;73.90;;;;;;5035485;28;20033;-78
2023/10/17 11:34:04;;;;;;;6.00;3.50;;;13.40;73.90;;;;;;5031919;28;20446;-76
2023/10/17 11:36:36;;;;;;;4.95;3.28;;;13.40;73.90;;;;;;5035162;28;20424;-76
2023/10/17 11:39:05;;;;;;;4.00;3.15;;;13.40;73.80;;;;;;5039459;28;20036;-76
2023/10/17 11:41:41;;;;;;;4.40;3.38;;;13.40;73.80;;;;;;5014235;28;20308;-76
2023/10/17 11:44:09;;;;;;;4.57;3.45;;;13.50;73.90;;;;;;5022949;28;20382;-75
2023/10/17 11:46:38;;;;;;;4.57;2.97;;;13.50;73.90;;;;;;5034839;28;20033;-75
2023/10/17 11:49:20;;;;;;;3.78;2.85;;;13.50;73.90;;;;;;5021678;28;20053;-76
2023/10/17 11:52:04;;;;;;;4.00;2.80;;;13.50;73.90;;;;;;5048537;28;20022;-74
2023/10/17 11:54:31;;;;;;;5.40;3.00;;;13.50;73.90;;;;;;5041226;28;20038;-79
2023/10/17 11:57:23;;;;;;;4.15;3.20;;;13.50;73.70;;;;;;5017880;28;20028;-78
2023/10/17 11:59:57;;;;;;;4.03;2.63;;;13.50;73.80;;;;;;5027440;28;20041;-77
2023/10/17 12:02:23;;;;;;;5.95;2.97;;;13.60;73.80;;;;;;5015558;28;20029;-77
2023/10/17 12:04:49;;;;;;;3.58;2.70;;;13.60;73.70;;;;;;5033452;28;20036;-77
2023/10/17 12:07:15;;;;;;;4.03;2.88;;;13.60;73.70;;;;;;5016689;28;20049;-75
2023/10/17 12:09:41;;;;;;;3.90;2.90;;;13.60;73.70;;;;;;5033907;28;20219;-75
2023/10/17 12:12:07;;;;;;;3.75;2.97;;;13.60;73.60;;;;;;5016840;28;20120;-78
2023/10/17 12:14:35;;;;;;;3.83;2.75;;;13.60;73.60;;;;;;5034557;28;20029;-75
2023/10/17 12:17:00;;;;;;;3.55;2.83;;;13.70;73.70;;;;;;5038007;28;20044;-76
2023/10/17 12:19:27;;;;;;;4.35;2.63;;;13.70;73.60;;;;;;5035071;28;20033;-74
2023/10/17 12:21:54;;;;;;;4.43;2.85;;;13.80;73.60;;;;;;5016316;28;20133;-76
2023/10/17 12:24:28;;;;;;;3.15;2.33;;;13.80;73.50;;;;;;5019394;28;20014;-75
2023/10/17 12:26:55;;;;;;;3.78;2.40;;;13.80;73.50;;;;;;5032423;28;20026;-76
2023/10/17 12:29:25;;;;;;;4.10;2.75;;;13.80;73.40;;;;;;5022056;28;20113;-77
2023/10/17 12:31:53;;;;;;;4.75;2.88;;;13.90;73.50;;;;;;5038528;28;20037;-77
2023/10/17 12:34:19;;;;;;;3.05;2.38;;;13.90;73.40;;;;;;5031964;28;20053;-77
2023/10/17 12:36:46;;;;;;;3.45;2.65;;;13.90;73.40;;;;;;4989937;28;20025;-78
2023/10/17 12:39:14;;;;;;;3.65;2.65;;;13.90;73.30;;;;;;5041624;28;20044;-78
2023/10/17 12:41:39;;;;;;;3.25;2.42;;;13.90;73.30;;;;;;5040232;28;20040;-75
2023/10/17 12:44:05;;;;;;;3.00;2.42;;;14.00;73.40;;;;;;5015909;28;20030;-75
2023/10/17 12:46:31;;;;;;;3.53;2.50;;;14.00;73.40;;;;;;5014291;28;20034;-75
2023/10/17 12:48:57;;;;;;;3.47;2.65;;;14.00;73.30;;;;;;5039722;28;20037;-76
2023/10/17 12:51:23;;;;;;;2.97;2.47;;;14.00;73.30;;;;;;5015524;28;20033;-76
2023/10/17 12:53:49;;;;;;;2.47;2.25;;;14.00;73.30;;;;;;5044126;28;20459;-76
2023/10/17 12:56:15;;;;;;;3.35;2.38;;;14.00;73.30;;;;;;5045284;28;20083;-77
2023/10/17 12:58:41;;;;;;;2.88;2.53;;;14.00;73.20;;;;;;5046398;28;20037;-75
2023/10/17 13:01:07;;;;;;;3.17;2.25;;;14.10;73.30;;;;;;5043433;28;20045;-76
2023/10/17 13:03:34;;;;;;;3.50;2.55;;;14.10;73.30;;;;;;5004351;28;20398;-75
2023/10/17 13:06:03;;;;;;;3.00;2.30;;;14.10;73.20;;;;;;5040434;28;20482;-76
2023/10/17 13:08:31;;;;;;;2.75;2.10;;;14.10;73.20;;;;;;5041489;28;20031;-77
2023/10/17 13:10:57;;;;;;;2.60;2.10;;;14.10;73.20;;;;;;5024174;28;20033;-75
2023/10/17 13:13:24;;;;;;;2.58;2.20;;;14.10;73.20;;;;;;5046533;28;20096;-76
2023/10/17 13:15:50;;;;;;;2.78;2.08;;;14.20;73.20;;;;;;5039000;28;20132;-75
2023/10/17 13:18:16;;;;;;;2.40;2.20;;;14.20;73.20;;;;;;5025113;28;20129;-75
2023/10/17 13:20:48;;;;;;;2.53;2.10;;;14.20;73.20;;;;;;5039428;28;20034;-77
2023/10/17 13:23:17;;;;;;;3.03;1.90;;;14.20;73.20;;;;;;5026764;28;20063;-75
2023/10/17 13:25:43;;;;;;;3.25;2.30;;;14.20;73.30;;;;;;5048389;28;20029;-76
2023/10/17 13:28:10;;;;;;;3.10;1.85;;;14.20;73.20;;;;;;5044674;28;20044;-78
2023/10/17 13:30:36;;;;;;;2.28;2.00;;;14.30;73.30;;;;;;5022234;28;20091;-77
2023/10/17 13:33:02;;;;;;;2.58;2.08;;;14.30;73.20;;;;;;5041619;28;20187;-75
2023/10/17 13:35:30;;;;;;;2.42;2.10;;;14.30;73.10;;;;;;5032291;28;20032;-75
2023/10/17 13:37:58;;;;;;;2.17;1.70;;;14.40;73.80;;;;;;5038691;28;20441;-75
2023/10/17 13:40:25;;;;;;;2.25;2.05;;;14.40;73.20;;;;;;5042183;28;20104;-75
2023/10/17 13:42:52;;;;;;;2.55;2.10;;;14.40;73.10;;;;;;5039773;28;20025;-77
2023/10/17 13:45:21;;;;;;;2.78;1.83;;;14.40;73.10;;;;;;5025842;28;20033;-77
2023/10/17 13:47:52;;;;;;;2.40;2.20;;;14.40;73.00;;;;;;5030488;28;20056;-75
2023/10/17 13:50:18;;;;;;;3.00;2.00;;;14.50;73.00;;;;;;5039825;28;20030;-75
2023/10/17 13:52:49;;;;;;;2.40;2.20;;;14.50;73.00;;;;;;5021497;28;20387;-76
2023/10/17 13:55:38;;;;;;;2.28;2.00;;;14.50;72.90;;;;;;5018191;28;20037;-75
2023/10/17 13:58:01;;;;;;;2.10;1.90;;;14.50;72.90;;;;;;5036283;28;20053;-75
2023/10/17 14:00:42;;;;;;;2.65;1.92;;;14.50;72.80;;;;;;5033882;28;20044;-77
2023/10/17 14:03:12;;;;;;;2.65;1.98;;;14.50;72.80;;;;;;5031990;28;20056;-75
2023/10/17 14:05:44;;;;;;;2.63;2.05;;;14.50;72.80;;;;;;5046048;28;20056;-76
2023/10/17 14:08:13;;;;;;;2.58;1.90;;;14.60;72.80;;;;;;5044673;28;20097;-78
2023/10/17 14:10:43;;;;;;;2.47;2.00;;;14.60;72.70;;;;;;5032874;28;20026;-75
2023/10/17 14:13:15;;;;;;;2.42;2.00;;;14.60;72.70;;;;;;5026740;28;20466;-75
2023/10/17 14:15:41;;;;;;;2.30;1.90;;;14.60;72.60;;;;;;5038391;28;20597;-77
2023/10/17 14:18:09;;;;;;;2.63;1.98;;;14.60;72.60;;;;;;5035776;28;20116;-76
2023/10/17 14:21:04;;;;;;;2.92;2.10;;;14.60;72.60;;;;;;5043130;28;20048;-76
2023/10/17 14:23:45;;;;;;;1.63;1.52;;;14.70;72.60;;;;;;5045927;28;20029;-75
2023/10/17 14:26:11;;;;;;;2.10;1.90;;;14.70;72.50;;;;;;4995083;28;20463;-77
2023/10/17 14:28:37;;;;;;;3.40;1.90;;;14.70;72.50;;;;;;5047809;28;20058;-76
2023/10/17 14:31:05;;;;;;;2.28;2.03;;;14.70;72.50;;;;;;5045183;28;20037;-75
2023/10/17 14:33:34;;;;;;;2.42;2.00;;;14.70;72.40;;;;;;5048460;28;20028;-76
2023/10/17 14:36:05;;;;;;;3.05;2.03;;;14.70;72.40;;;;;;5019538;28;20025;-75
2023/10/17 14:38:34;;;;;;;1.95;1.65;;;14.70;72.40;;;;;;5032785;28;20029;-75
2023/10/17 14:41:06;;;;;;;1.83;1.67;;;14.70;72.40;;;;;;5040458;28;20117;-75
2023/10/17 14:43:32;;;;;;;1.92;1.75;;;14.80;72.40;;;;;;4997643;28;20029;-75
2023/10/17 14:45:59;;;;;;;2.47;1.77;;;14.80;72.40;;;;;;5040004;28;20037;-75
2023/10/17 14:48:25;;;;;;;2.17;1.80;;;14.80;72.40;;;;;;5027778;28;20064;-75
2023/10/17 14:50:51;;;;;;;2.10;1.90;;;14.80;72.40;;;;;;5036389;28;20563;-75
2023/10/17 14:53:19;;;;;;;2.30;2.03;;;14.80;72.40;;;;;;5020096;28;20402;-76
2023/10/17 14:55:55;;;;;;;2.67;2.03;;;14.80;72.40;;;;;;5035145;28;20030;-76
2023/10/17 14:58:21;;;;;;;2.88;2.00;;;14.80;72.30;;;;;;5021651;28;20025;-76
2023/10/17 15:00:55;;;;;;;2.35;1.88;;;14.80;72.20;;;;;;5005706;28;20585;-77
2023/10/17 15:03:21;;;;;;;2.13;1.70;;;14.90;72.30;;;;;;5032652;28;20537;-76
2023/10/17 15:05:47;;;;;;;2.08;1.80;;;14.90;72.20;;;;;;5040953;28;20063;-76
2023/10/17 15:08:14;;;;;;;3.08;2.00;;;14.90;72.20;;;;;;4998022;28;20117;-73
2023/10/17 15:10:40;;;;;;;2.45;2.00;;;14.90;72.20;;;;;;5031769;28;20033;-78
2023/10/17 15:13:09;;;;;;;1.88;1.73;;;15.00;72.20;;;;;;5031980;28;20451;-75
2023/10/17 15:15:36;;;;;;;3.65;2.17;;;15.00;72.20;;;;;;5038746;28;20119;-74
2023/10/17 15:18:04;;;;;;;2.15;1.90;;;15.00;72.10;;;;;;5021799;28;20025;-76
2023/10/17 15:20:30;;;;;;;2.63;1.90;;;15.00;72.10;;;;;;5028908;28;20164;-75
2023/10/17 15:22:58;;;;;;;2.55;1.92;;;15.00;72.10;;;;;;5030658;28;20025;-75